Home > Products > Valid Products > TAF

000
FTUS44 KOHX 021100
TAFCSV
TAF
KCSV 021122Z 0212/0312 24007KT P6SM SCT040 BKN250
     FM022200 24005KT P6SM VCTS BKN040CB
     FM030400 20003KT P6SM BKN250
     FM030600 00000KT 4SM BR BKN250
     FM031000 00000KT 2SM BR SCT250=



000
FTUS44 KOHX 021100
TAFCKV
TAF
KCKV 021122Z 0212/0312 21006KT P6SM SCT100 BKN250
     FM021800 24007KT P6SM VCTS BKN040CB BKN100
     FM022300 21004KT P6SM SCT040 BKN250
     FM030800 00000KT 3SM BR SCT250=



000
FTUS44 KOHX 021100
TAFBNA
TAF
KBNA 021122Z 0212/0312 21008KT P6SM SCT050 BKN250
     FM022000 23007KT P6SM VCTS BKN040CB BKN100
     FM030100 20003KT P6SM SCT050 BKN250
     FM030900 00000KT 4SM BR SCT250=



000
FTUS44 KOHX 021000 AAA
TAFCKV
TAF AMD
KCKV 021011Z 0210/0306 21006KT P6SM SCT100 BKN250
     FM021900 25007KT 4SM TSRA OVC035CB=



000
FTUS44 KOHX 020500
TAFBNA
TAF
KBNA 020523Z 0206/0306 18005KT P6SM SCT250
     FM021000 19004KT P6SM BKN050 OVC150
     FM022000 24007KT 4SM TSRA BKN050CB
     FM030300 20003KT P6SM BKN250=



000
FTUS44 KOHX 020500
TAFCKV
TAF
KCKV 020523Z 0206/0306 00000KT P6SM SKC
     FM020900 21005KT P6SM OVC040
     FM021100 22006KT 5SM -RA BR VCTS OVC025CB
     FM021400 24009KT P6SM OVC025
     FM021900 25007KT 4SM TSRA OVC035CB=



000
FTUS44 KOHX 020500
TAFCSV
TAF
KCSV 020523Z 0206/0306 00000KT P6SM SKC
      TEMPO 0210/0212 4SM BR
     FM021600 25008KT P6SM BKN040
     FM022200 23005KT P6SM VCTS BKN040CB
     FM030400 20003KT P6SM BKN250=



000
FTUS44 KOHX 020100 AAA
TAFBNA
TAF AMD
KBNA 020107Z 0201/0224 22005KT P6SM SCT250
     FM021000 19004KT P6SM BKN050 OVC150
     FM022200 24007KT 4SM TSRA OVC050CB=



000
FTUS44 KOHX 012300
TAFBNA
TAF
KBNA 012328Z 0200/0224 21009G20KT P6SM SCT060 SCT250
     FM020200 25005KT P6SM SKC
     FM021000 19004KT P6SM BKN050 OVC150
     FM022200 24007KT 4SM TSRA OVC050CB=



000
FTUS44 KOHX 012300
TAFCKV
TAF
KCKV 012328Z 0200/0224 22006KT P6SM SKC
     FM020900 21005KT P6SM OVC035
     FM021300 21006KT 5SM -RA BR VCTS OVC015CB
     FM021700 24009KT P6SM OVC025
     FM022100 25007KT 4SM TSRA OVC035CB=



000
FTUS44 KOHX 012300
TAFCSV
TAF
KCSV 012328Z 0200/0224 00000KT P6SM SKC
      TEMPO 0210/0212 4SM BR
     FM021600 25007G15KT P6SM BKN040
     FM022300 26005KT P6SM VCTS BKN040CB=



000
FTUS44 KOHX 012000 AAA
TAFBNA
TAF AMD
KBNA 012056Z 0121/0218 25007G15KT P6SM SCT060 SCT150 BKN250
     FM020200 19005KT P6SM SCT250=



000
FTUS44 KOHX 011700 CCA
TAFCKV
TAF COR
KCKV 011726Z 0118/0218 22012G18KT P6SM FEW030 SCT045 BKN110
      TEMPO 0118/0120 5SM -SHRA OVC035
     FM020000 21006KT P6SM SCT110=



000
FTUS44 KOHX 011700
TAFBNA
TAF
KBNA 011720Z 0118/0218 22007G15KT P6SM FEW040 SCT050 SCT250
     FM020200 19005KT P6SM SCT250=



000
FTUS44 KOHX 011700
TAFCSV
TAF
KCSV 011720Z 0118/0218 23007G15KT P6SM FEW035
     FM020000 19003KT P6SM SKC
     FM021600 25007G15KT P6SM SCT035=



000
FTUS44 KOHX 011700
TAFCKV
TAF
KCKV 011720Z 0118/0218 22012G18KT P6SM FEW030 SCT045 BKN110
     FM020000 21006KT P6SM SCT110=



000
FTUS44 KOHX 011700 AAC
TAFCKV
TAF AMD
KCKV 011715Z 0117/0212 22012G18KT P6SM FEW030 SCT045 BKN110
     FM020200 18006KT P6SM SKC=



000
FTUS44 KOHX 011600 AAA
TAFBNA
TAF AMD
KBNA 011615Z 0116/0212 24009G14KT P6SM FEW030 SCT040 SCT200
     FM020200 18005KT P6SM SKC=



000
FTUS44 KOHX 011500 AAB
TAFCKV
TAF AMD
KCKV 011519Z 0115/0212 25007KT P6SM SCT026 BKN035
      TEMPO 0115/0116 1 1/2SM +SHRA SCT019 BKN026 OVC035
     FM020200 18006KT P6SM SKC=



000
FTUS44 KOHX 011200 AAA
TAFCKV
TAF AMD
KCKV 011217Z 0112/0212 19007KT P6SM SCT120
     FM011500 20010G20KT P6SM SCT040
     FM020200 18006KT P6SM SKC=



000
FTUS44 KOHX 011100
TAFCKV
TAF
KCKV 011127Z 0112/0212 18007KT P6SM BKN006 BKN080
     FM011500 20010G20KT P6SM SCT040
     FM020200 18006KT P6SM SKC=



000
FTUS44 KOHX 011100
TAFBNA
TAF
KBNA 011127Z 0112/0212 18005KT P6SM SCT035 BKN100
     FM011500 20010G18KT P6SM SCT040
     FM020200 18005KT P6SM SKC=



000
FTUS44 KOHX 011100
TAFCSV
TAF
KCSV 011127Z 0112/0212 00000KT P6SM SCT040 OVC100
     FM011600 22010KT P6SM SCT040
     FM020100 19004KT P6SM SKC=



000
FTUS44 KOHX 011000 AAB
TAFCSV
TAF AMD
KCSV 011023Z 0110/0206 00000KT P6SM SCT040 OVC100
     FM011600 22008KT P6SM SCT040
     FM020100 18003KT P6SM SKC=



000
FTUS44 KOHX 010800 AAA
TAFCSV
TAF AMD
KCSV 010810Z 0108/0206 00000KT P6SM OVC150
     FM011000 00000KT 5SM BR BKN008 OVC100
     FM011500 20006KT 6SM HZ BKN020
     FM011600 22008KT P6SM SCT040
     FM020100 18003KT P6SM SKC=



000
FTUS44 KOHX 010800 AAA
TAFCKV
TAF AMD
KCKV 010807Z 0108/0206 19005KT P6SM SKC
     FM011000 18004KT P6SM SCT035
      TEMPO 0111/0113 BKN008 OVC011
     FM011600 20010G20KT P6SM SCT040
     FM020100 18006KT P6SM SKC=



000
FTUS44 KOHX 010800 AAA
TAFBNA
TAF AMD
KBNA 010805Z 0108/0206 18003KT P6SM SCT008 BKN100
      TEMPO 0110/0113 BKN008 OVC011
     FM011500 20005KT P6SM BKN025
     FM011700 20008G16KT P6SM SCT040=



000
FTUS44 KOHX 010500
TAFCKV
TAF
KCKV 010533Z 0106/0206 19005KT P6SM SCT050
     FM010900 18004KT P6SM BKN025
      TEMPO 0110/0113 BKN008 OVC011
     FM011600 20010G20KT P6SM SCT040
     FM020100 18006KT P6SM SKC=



000
FTUS44 KOHX 010500
TAFCSV
TAF
KCSV 010533Z 0106/0206 VRB04KT P6SM OVC250
     FM010900 VRB03KT 4SM BR BKN008 BKN100
     FM011500 20006KT 6SM HZ BKN020
     FM011600 22008KT P6SM SCT040
     FM020100 18003KT P6SM SKC=



000
FTUS44 KOHX 010500
TAFBNA
TAF
KBNA 010533Z 0106/0206 19003KT P6SM SCT250
     FM010800 18003KT P6SM SCT008 BKN011
      TEMPO 0110/0113 BKN008 OVC011
     FM011500 20005KT P6SM BKN025
     FM011700 20008G16KT P6SM SCT040=



000
FTUS44 KOHX 010200 AAB
TAFBNA
TAF AMD
KBNA 010226Z 0102/0124 18005KT P6SM SCT250
     FM010800 18005KT P6SM SCT008 BKN011
      TEMPO 0110/0113 BKN008 OVC011
     FM011500 20005KT P6SM BKN025
     FM011700 20008G16KT P6SM SCT040=



000
FTUS44 KOHX 010200 AAA
TAFCSV
TAF AMD
KCSV 010226Z 0102/0124 VRB04KT P6SM OVC250
     FM010900 VRB03KT 4SM BR BKN008 BKN100
     FM011500 20006KT 6SM HZ BKN020
     FM011600 22006G16KT P6SM SCT040=



000
FTUS44 KOHX 010100 AAA
TAFBNA
TAF AMD
KBNA 010126Z 0101/0124 25008KT P6SM BKN050
     FM010800 18005KT P6SM SCT008 BKN011
      TEMPO 0110/0113 BKN008 OVC011
     FM011500 20005KT P6SM BKN025
     FM011700 20008G16KT P6SM SCT040=



000
FTUS44 KOHX 312300
TAFBNA
TAF
KBNA 312322Z 0100/0124 25008KT P6SM BKN050
     FM010800 18005KT P6SM SCT008 BKN011
      TEMPO 0110/0113 2SM BR BKN008 OVC011
     FM011500 20005KT P6SM BKN025
     FM011700 20008G16KT P6SM SCT040=



000
FTUS44 KOHX 312300
TAFCKV
TAF
KCKV 312322Z 0100/0124 22006KT P6SM SCT050
     FM010900 20005KT P6SM BKN025
      TEMPO 0110/0113 BKN008 OVC011
     FM011600 20010G20KT P6SM SCT040=



000
FTUS44 KOHX 312300
TAFCSV
TAF
KCSV 312322Z 0100/0124 VRB04KT P6SM VCSH BKN070 OVC250
     FM010900 VRB03KT 4SM BR BKN008 BKN100
     FM011500 20006KT 6SM HZ BKN020
     FM011600 22006G16KT P6SM SCT040=



000
FTUS44 KOHX 312200 AAD
TAFCKV
TAF AMD
KCKV 312222Z 3122/0118 21006KT P6SM SCT030 BKN050
     FM010800 VRB03KT 4SM BR SCT008 BKN011
      TEMPO 0110/0112 2SM BR BKN008 OVC011
     FM011300 20006KT 6SM HZ BKN020
     FM011600 20010G20KT P6SM SCT040=



000
FTUS44 KOHX 312100 AAC
TAFCKV
TAF AMD
KCKV 312131Z 3122/0118 21006KT P6SM BKN020
     FM010000 19004KT P6SM BKN050
     FM010800 VRB03KT 4SM BR SCT008 BKN011
      TEMPO 0110/0112 2SM BR BKN008 OVC011
     FM011300 20006KT 5SM HZ BKN020
     FM011400 20010G20KT P6SM SCT040=



000
FTUS44 KOHX 312100 AAC
TAFCKV
TAF AMD
KCKV 312131Z 3122/0118 21006KT P6SM BKN020
     FM010000 19004KT P6SM BKN050
     FM010800 VRB03KT 4SM BR SCT008 BKN011
      TEMPO 0110/0112 2SM BR BKN008 OVC011
     FM011300 20006KT 5SM HZ BKN020
     FM011400 20010G20KT P6SM SCT040=



000
FTUS44 KOHX 312100 AAA
TAFBNA
TAF AMD
KBNA 312129Z 3121/0118 22008KT P6SM VCSH OVC040
     FM010000 22007KT P6SM BKN050
     FM010800 VRB03KT 4SM BR SCT008 BKN011
      TEMPO 0110/0112 2SM BR BKN008 OVC011
     FM011500 20004KT P6SM BKN025
     FM011700 20008G16KT P6SM SCT040=



000
FTUS44 KOHX 312100 AAA
TAFBNA
TAF AMD
KBNA 312129Z 3121/0118 22008KT P6SM VCSH OVC040
     FM010000 22007KT P6SM BKN050
     FM010800 VRB03KT 4SM BR SCT008 BKN011
      TEMPO 0110/0112 2SM BR BKN008 OVC011
     FM011500 20004KT P6SM BKN025
     FM011700 20008G16KT P6SM SCT040=



000
FTUS44 KOHX 312100 AAB
TAFCSV
TAF AMD
KCSV 312125Z 3121/0118 VRB04KT P6SM VCSH BKN040
     FM010400 VRB03KT 6SM BR SCT008 SCT100
     FM010700 VRB03KT 4SM BR BKN008 BKN100
     FM011300 20006KT 6SM HZ BKN020
     FM011600 22006G16KT P6SM SCT040=



000
FTUS44 KOHX 312000 AAB
TAFCKV
TAF AMD
KCKV 312030Z 3121/0118 25006KT P6SM -SHRA VCSH SCT015 OVC035
     FM312300 22007KT P6SM OVC035
     FM010300 19004KT P6SM SCT100 BKN250
     FM010800 VRB03KT 4SM BR SCT008 BKN011
      TEMPO 0110/0112 2SM BR BKN008 OVC011
     FM011300 20006KT 5SM HZ BKN020
     FM011400 20010G20KT P6SM SCT040=



000
FTUS44 KOHX 312000 AAA
TAFCSV
TAF AMD
KCSV 312027Z 3120/0118 VRB04KT 1SM SHRA BKN020 OVC035
      TEMPO 3120/3123 3SM -SHRA SCT020 OVC035
     FM312300 20005KT P6SM SCT020 OVC035
     FM010300 VRB03KT P6SM SCT100 BKN250
     FM010400 VRB03KT 4SM BR SCT008 SCT100 BKN250
     FM010700 VRB03KT 2SM BR BKN008 BKN100 BKN250
      TEMPO 0108/0112 1SM BR BKN006 OVC011
     FM011300 20006KT 5SM HZ BKN020
     FM011400 22006G16KT P6SM SCT040=



000
FTUS44 KOHX 311700 AAA
TAFCKV
TAF AMD
KCKV 311749Z 3118/0118 22010G20KT P6SM VCSH BKN010 OVC035
      TEMPO 3119/3123 5SM -SHRA
     FM312300 22007KT P6SM OVC025
     FM010300 19004KT P6SM SCT100 BKN250
     FM010800 VRB03KT 4SM BR SCT008 BKN011
      TEMPO 0110/0112 2SM BR BKN008 OVC011
     FM011300 20006KT 5SM HZ BKN020
     FM011400 20010G20KT P6SM SCT040=



000
FTUS44 KOHX 311700 RRA
TAFBNA
TAF
KBNA 311746Z 3118/0118 22010G20KT P6SM VCSH SCT010 OVC035
      TEMPO 3119/3123 5SM -SHRA BKN010 OVC025
     FM312300 22007KT P6SM OVC025
     FM010300 19004KT P6SM SCT100 BKN250
     FM010800 VRB03KT 4SM BR SCT008 BKN011
      TEMPO 0110/0112 2SM BR BKN008 OVC011
     FM011500 20004KT P6SM BKN025
     FM011700 20008G16KT P6SM SCT040=



000
FTUS44 KOHX 311700 RRA
TAFCSV
TAF
KCSV 311746Z 3118/0118 22008KT 6SM -SHRA BKN015 OVC030
      TEMPO 3119/3123 3SM -SHRA BKN010 OVC020
     FM010000 20005KT P6SM SCT100 BKN250
     FM010400 VRB03KT 4SM BR SCT008 SCT100 BKN250
     FM010700 VRB03KT 2SM BR BKN008 BKN100 BKN250
      TEMPO 0108/0112 1SM BR BKN006 OVC011
     FM011300 20006KT 5SM HZ BKN020
     FM011400 22006G16KT P6SM SCT040=



000
FTUS44 KOHX 311700 RRA
TAFCKV
TAF
KCKV 311746Z 3118/0118 22010G20KT P6SM VCSH SCT010 OVC035
      TEMPO 3119/3123 5SM -SHRA BKN010 OVC025
     FM312300 22007KT P6SM OVC025
     FM010300 19004KT P6SM SCT100 BKN250
     FM010800 VRB03KT 4SM BR SCT008 BKN011
      TEMPO 0110/0112 2SM BR BKN008 OVC011
     FM011300 20006KT 5SM HZ BKN020
     FM011400 20010G20KT P6SM SCT040=



000
FTUS44 KOHX 311500 AAB
TAFCKV
TAF AMD
KCKV 311522Z 3115/0112 20008KT P6SM SCT009 BKN015 OVC050
      TEMPO 3115/3117 6SM -SHRA BKN009 BKN015 OVC050
     FM311800 22010G18KT P6SM BKN050
     FM010000 21006KT P6SM SCT100 BKN250
     FM010800 VRB03KT 3SM BR BKN005=



000
FTUS44 KOHX 311500 AAA
TAFCKV
TAF AMD
KCKV 311513Z 3115/0112 20008KT P6SM BKN015 OVC050
     FM311800 22010G18KT P6SM BKN050
     FM010000 21006KT P6SM SCT100 BKN250
     FM010800 VRB03KT 3SM BR BKN005=



000
FTUS44 KOHX 311300 AAA
TAFCSV
TAF AMD
KCSV 311308Z 3113/0112 17004KT P6SM -SHRA SCT005 BKN030 OVC040
      TEMPO 3113/3116 4SM -SHRA BR BKN003 OVC020
     FM311600 19008KT 5SM -SHRA BR BKN005 OVC015
     FM312000 22010G18KT 6SM -SHRA BKN008 OVC050
     FM010000 22005KT P6SM SCT100 BKN250
     FM010600 21004KT 4SM BR BKN008=



000
FTUS44 KOHX 311100
TAFBNA
TAF
KBNA 311129Z 3112/0112 16004KT P6SM -SHRA SCT007 BKN040
      TEMPO 3112/3116 4SM -SHRA BR BKN007 OVC030
     FM311600 18008KT 6SM -SHRA BR SCT015 BKN050
     FM312000 22010G18KT P6SM BKN050
     FM010000 20006KT P6SM SCT100 BKN250
     FM010800 VRB03KT 3SM BR BKN005=



000
FTUS44 KOHX 311100
TAFCKV
TAF
KCKV 311129Z 3112/0112 18004KT 6SM -SHRA SCT009 BKN030
      TEMPO 3112/3115 2SM -SHRA BR BKN006 OVC030
     FM311500 18008KT 6SM -SHRA BR SCT015 BKN050
     FM311800 22010G18KT P6SM BKN050
     FM010000 21006KT P6SM SCT100 BKN250
     FM010800 VRB03KT 3SM BR BKN005=



000
FTUS44 KOHX 311100
TAFCSV
TAF
KCSV 311129Z 3112/0112 17004KT P6SM -SHRA BKN003 OVC040
      TEMPO 3112/3116 4SM -SHRA BR BKN003 OVC020
     FM311600 19008KT 5SM -SHRA BR BKN005 OVC015
     FM312000 22010G18KT 6SM -SHRA BKN008 OVC050
     FM010000 22005KT P6SM SCT100 BKN250
     FM010600 21004KT 4SM BR BKN008=



000
FTUS44 KOHX 310800 AAA
TAFCKV
TAF AMD
KCKV 310852Z 3109/0106 18004KT 6SM -SHRA SCT009 BKN060
      TEMPO 3110/3114 4SM -SHRA BR BKN009 OVC060
     FM311500 18008KT 6SM -SHRA BR SCT011 OVC020
     FM311700 22008G18KT P6SM OVC020
     FM312200 22008G18KT P6SM OVC050
     FM010000 21006KT P6SM SCT100 BKN250=



000
FTUS44 KOHX 310800 AAB
TAFBNA
TAF AMD
KBNA 310848Z 3109/0106 18004KT 6SM -SHRA BR BKN007 OVC040
      TEMPO 3110/3114 4SM -SHRA BR BKN009 OVC020
     FM311500 18008KT 6SM -SHRA BR SCT011 OVC020
     FM311700 22008G18KT P6SM OVC025
     FM312200 22008G18KT P6SM OVC050
     FM010000 21006KT P6SM SCT100 BKN250=



000
FTUS44 KOHX 310700 AAA
TAFBNA
TAF AMD
KBNA 310701Z 3107/0106 19006KT P6SM OVC005
     FM311000 19004KT 4SM -SHRA SCT009 OVC020
      TEMPO 3110/3114 2SM -SHRA BR BKN009 OVC020
     FM311500 18008KT 6SM -SHRA BR SCT011 OVC020
     FM311700 22008G18KT P6SM OVC025
     FM312200 22008G18KT P6SM OVC050
     FM010000 21006KT P6SM SCT100 BKN250=



000
FTUS44 KOHX 310500
TAFCKV
TAF
KCKV 310534Z 3106/0106 17004KT P6SM VCSH SCT008 SCT040 OVC120
      TEMPO 3106/3109 5SM -SHRA BKN011 OVC040
     FM311000 19004KT 4SM -SHRA SCT009 OVC020
      TEMPO 3110/3114 2SM -SHRA BR BKN009 OVC020
     FM311500 18008KT 6SM -SHRA BR SCT011 OVC020
     FM311700 22008G18KT P6SM OVC020
     FM312200 22008G18KT P6SM OVC050
     FM010000 21006KT P6SM SCT100 BKN250=



000
FTUS44 KOHX 310500
TAFBNA
TAF
KBNA 310534Z 3106/0106 19004KT P6SM SCT006 SCT040 OVC150
     FM311000 19004KT 4SM -SHRA SCT009 OVC020
      TEMPO 3110/3114 2SM -SHRA BR BKN009 OVC020
     FM311500 18008KT 6SM -SHRA BR SCT011 OVC020
     FM311700 22008G18KT P6SM OVC025
     FM312200 22008G18KT P6SM OVC050
     FM010000 21006KT P6SM SCT100 BKN250=



000
FTUS44 KOHX 310500
TAFCSV
TAF
KCSV 310534Z 3106/0106 21004KT P6SM SCT009 SCT040 OVC100
     FM311000 19004KT 4SM -SHRA SCT009 OVC020
      TEMPO 3110/3114 2SM -SHRA BR BKN009 OVC020
     FM311500 19008KT 4SM -SHRA BR OVC015
      TEMPO 3115/3118 6SM -SHRA BR OVC025
     FM312200 22008G18KT P6SM OVC050
     FM010000 21003KT P6SM SCT100 BKN250
      TEMPO 0103/0106 4SM BR=



000
FTUS44 KOHX 310000 AAA
TAFCSV
TAF AMD
KCSV 310047Z 3101/3124 18004KT P6SM VCTS SCT040CB OVC090
      TEMPO 3101/3105 2SM TSRA BR SCT020CB BKN040 OVC090
     FM310600 18003KT 4SM BR VCSH SCT010 BKN030 OVC090
      TEMPO 3109/3112 2SM BR BKN010 BKN030 OVC090
     FM311300 20006KT 4SM BR VCTS BKN025CB OVC050=



000
FTUS44 KOHX 310000 AAA
TAFBNA
TAF AMD
KBNA 310010Z 3100/3124 VRB04KT 3SM -TSRA SCT011 OVC030CB
      TEMPO 3100/3102 3/4SM TSRA BR BKN004 OVC011CB
     FM310300 18005KT 4SM -SHRA BR SCT009 OVC020
      TEMPO 3109/3112 2SM -SHRA BR BKN009 OVC020
     FM311200 18008KT 4SM -SHRA BR SCT011 OVC020
      TEMPO 3112/3116 2SM -SHRA BR BKN011 OVC020
     FM311700 22008G18KT P6SM VCTS BKN025CB OVC050=



000
FTUS44 KOHX 302300
TAFCSV
TAF
KCSV 302325Z 3100/3124 18004KT P6SM VCSH SCT040 OVC090
      TEMPO 3102/3106 4SM -SHRA BR SCT020 BKN040 OVC090
     FM310600 18003KT 4SM BR VCSH SCT010 BKN030 OVC090
      TEMPO 3109/3112 2SM BR BKN010 BKN030 OVC090
     FM311300 20006KT 4SM BR VCTS BKN025CB OVC050
     FM311800 20008G16KT P6SM VCTS SCT025CB OVC050
      TEMPO 3119/3123 3SM -TSRA BKN025CB OVC050=



000
FTUS44 KOHX 302300
TAFCKV
TAF
KCKV 302325Z 3100/3124 17004KT P6SM SCT030 OVC090
     FM310200 17004KT 4SM -SHRA BR SCT009 OVC020
      TEMPO 3109/3112 2SM -SHRA BR BKN009 OVC020
     FM311300 18008KT 4SM -SHRA BR OVC010
     FM311700 22010G20KT P6SM BKN025 OVC050
      TEMPO 3119/3123 BKN050=



000
FTUS44 KOHX 302300
TAFBNA
TAF
KBNA 302325Z 3100/3124 VRB04KT 3SM -TSRA SCT011 OVC030CB
      TEMPO 3100/3102 3/4SM TSRA BR BKN011 OVC030CB
     FM310300 18005KT 4SM -SHRA BR SCT009 OVC020
      TEMPO 3109/3112 2SM -SHRA BR BKN009 OVC020
     FM311200 18008KT 4SM -SHRA BR SCT011 OVC020
      TEMPO 3112/3116 2SM -SHRA BR BKN011 OVC020
     FM311700 22008G18KT P6SM VCTS BKN025CB OVC050=



000
FTUS44 KOHX 302200 AAC
TAFBNA
TAF AMD
KBNA 302248Z 3023/3118 10008G19KT 4SM -TSRA SCT011 OVC030CB
      TEMPO 3023/3024 3/4SM TSRA BR BKN011 OVC030CB
     FM310000 19008KT P6SM VCSH SCT030 BKN060 OVC100
      TEMPO 3100/3104 4SM -SHRA BR BKN030 OVC060
     FM310400 18005KT 4SM -SHRA BR OVC020
     FM311000 15006KT 2SM -TSRA OVC010CB=



000
FTUS44 KOHX 302200 AAB
TAFCSV
TAF AMD
KCSV 302219Z 3022/3118 18004KT P6SM VCSH BKN040 OVC090
      TEMPO 3102/3106 4SM -SHRA BR SCT020 BKN040 OVC090
     FM310600 18003KT 3SM BR VCSH BKN030
     FM311200 15006KT 2SM TSRA OVC010CB=



000
FTUS44 KOHX 302200 AAB
TAFCKV
TAF AMD
KCKV 302216Z 3022/3118 18003KT P6SM VCSH SCT040 BKN070 OVC080
     FM310000 19008KT P6SM VCSH SCT030 BKN060 OVC100
      TEMPO 3100/3104 4SM -SHRA BR BKN030 OVC060
     FM310400 17004KT 2SM -SHRA BR VCTS OVC007CB
     FM311000 15006KT 2SM TSRA OVC010CB=



000
FTUS44 KOHX 302200 AAB
TAFBNA
TAF AMD
KBNA 302212Z 3022/3118 VRB03KT P6SM VCTS SCT030CB BKN060 OVC100
     FM310000 19008KT P6SM VCSH SCT030 BKN060 OVC100
      TEMPO 3100/3104 4SM -SHRA BR BKN030 OVC060
     FM310400 18005KT 4SM -SHRA BR OVC020
     FM311000 15006KT 2SM -TSRA OVC010CB=



000
FTUS44 KOHX 302000 AAA
TAFCSV
TAF AMD
KCSV 302029Z 3020/3118 16006KT P6SM BKN060
     FM302200 17005KT 4SM RA BR VCTS OVC025CB
     FM310600 18003KT 3SM BR VCSH BKN030
     FM311200 15006KT 2SM TSRA OVC010CB=



000
FTUS44 KOHX 302000 AAA
TAFCKV
TAF AMD
KCKV 302028Z 3020/3118 15007KT P6SM -RA OVC100
     FM302200 17008KT 4SM RA BR VCTS OVC025CB
     FM310000 18006KT 2SM TSRA OVC015CB
     FM310300 17004KT 2SM +SHRA BR VCTS OVC007CB
     FM311000 15006KT 2SM TSRA OVC010CB=



000
FTUS44 KOHX 302000 AAA
TAFBNA
TAF AMD
KBNA 302027Z 3020/3118 33007KT P6SM BKN025 OVC100
     FM302200 20007KT 5SM RA BR VCTS OVC040CB
     FM310000 19008KT 2SM TSRA OVC015CB
     FM310400 18005KT 4SM RA BR OVC020
     FM311000 15006KT 2SM TSRA OVC010CB=



000
FTUS44 KOHX 301700
TAFBNA
TAF
KBNA 301739Z 3018/3118 17003KT P6SM OVC120
     FM302000 18007KT P6SM BKN050
     FM302100 20007KT 5SM RA BR VCTS OVC040CB
     FM302300 19008KT 2SM TSRA OVC015CB
     FM310400 18005KT 4SM RA BR OVC020
     FM311000 15006KT 2SM TSRA OVC010CB=



000
FTUS44 KOHX 301700
TAFCKV
TAF
KCKV 301739Z 3018/3118 21007KT P6SM -RA OVC100
     FM302100 20008KT 4SM RA BR VCTS OVC025CB
     FM310000 18006KT 2SM TSRA OVC015CB
     FM310300 17004KT 2SM +SHRA BR VCTS OVC007CB
     FM311000 15006KT 2SM TSRA OVC010CB=



000
FTUS44 KOHX 301700
TAFCSV
TAF
KCSV 301739Z 3018/3118 16006KT P6SM OVC250
     FM302100 18007KT P6SM VCTS OVC050CB
     FM310100 17005KT 4SM TSRA BR OVC025CB
     FM310600 18003KT 3SM BR VCSH BKN030
     FM311200 15006KT 2SM TSRA OVC010CB=



    US Dept of Commerce
    National Oceanic and Atmospheric Administration
    National Weather Service
    1325 East West Highway
    Silver Spring, MD 20910
    Page Author: NWS Internet Services Team
Disclaimer
Information Quality
Credits
Glossary
Privacy Policy
Freedom of Information Act (FOIA)
About Us
Career Opportunities